Time;durP1;ratioP1;P1;durP2;ratioP2;P2;SDS_P1;SDS_P2;PMS_P1;PMS_P2;Temp;Humidity;BMP_temperature;BMP_pressure;BME280_temperature;BME280_humidity;BME280_pressure;Samples;Min_cycle;Max_cycle;Signal;HPM_P1;HPM_P2
2022/11/11 00:01:12;;;;;;;10.90;4.72;;;9.60;99.90;;;;;;5046314;28;20046;-72
2022/11/11 00:03:38;;;;;;;12.43;4.82;;;9.60;99.90;;;;;;5043378;28;20049;-76
2022/11/11 00:06:13;;;;;;;10.13;4.38;;;9.60;99.90;;;;;;5050319;28;20047;-72
2022/11/11 00:08:39;;;;;;;12.15;4.43;;;9.60;99.90;;;;;;5010761;28;20541;-73
2022/11/11 00:11:11;;;;;;;13.85;5.55;;;9.60;99.90;;;;;;5031390;28;20387;-71
2022/11/11 00:13:38;;;;;;;18.95;5.03;;;9.60;99.90;;;;;;5030662;28;20072;-72
2022/11/11 00:16:13;;;;;;;17.95;5.07;;;9.60;99.90;;;;;;5077001;28;20442;-71
2022/11/11 00:27:10;;;;;;;16.42;5.38;;;9.70;99.90;;;;;;5042021;28;20127;-74
2022/11/11 00:29:40;;;;;;;10.35;4.32;;;9.80;99.90;;;;;;5045444;28;20118;-72
2022/11/11 00:32:22;;;;;;;10.70;4.68;;;9.90;99.90;;;;;;5049020;28;20056;-72
2022/11/11 00:37:38;;;;;;;12.73;4.70;;;9.90;99.90;;;;;;5030195;28;20052;-72
2022/11/11 00:40:04;;;;;;;11.77;4.93;;;9.90;99.90;;;;;;5038532;28;20049;-72
2022/11/11 00:42:30;;;;;;;10.88;5.03;;;9.90;99.90;;;;;;5029541;28;20052;-75
2022/11/11 00:44:56;;;;;;;11.95;5.28;;;9.90;99.90;;;;;;5030171;28;20056;-72
2022/11/11 00:53:09;;;;;;;10.98;4.80;;;9.90;99.90;;;;;;5037725;28;20067;-74
2022/11/11 00:55:35;;;;;;;20.80;5.63;;;9.90;99.90;;;;;;5049361;28;20367;-73
2022/11/11 00:58:00;;;;;;;10.85;5.30;;;9.90;99.90;;;;;;5049956;28;20075;-72
2022/11/11 01:00:26;;;;;;;20.38;5.63;;;9.90;99.90;;;;;;5049281;28;20059;-72
2022/11/11 01:02:52;;;;;;;15.18;5.88;;;9.90;99.90;;;;;;5032218;28;20564;-73
2022/11/11 01:05:17;;;;;;;11.85;5.47;;;9.90;99.90;;;;;;5048666;28;20132;-74
2022/11/11 01:07:43;;;;;;;12.45;5.35;;;9.90;99.90;;;;;;5045242;28;20096;-72
2022/11/11 01:10:09;;;;;;;18.52;5.85;;;9.90;99.90;;;;;;5053325;28;20749;-72
2022/11/11 01:12:35;;;;;;;14.73;5.07;;;9.90;99.90;;;;;;5028765;28;20134;-72
2022/11/11 01:15:01;;;;;;;12.68;5.40;;;9.90;99.90;;;;;;5062801;28;20049;-73
2022/11/11 01:17:28;;;;;;;13.25;6.32;;;9.80;99.90;;;;;;5033729;28;20095;-73
2022/11/11 01:19:53;;;;;;;15.38;5.22;;;9.70;99.90;;;;;;5028143;28;20045;-72
2022/11/11 01:22:19;;;;;;;18.75;6.03;;;9.70;99.90;;;;;;5029129;28;20083;-73
2022/11/11 01:24:45;;;;;;;14.13;5.72;;;9.70;99.90;;;;;;5046473;28;20045;-72
2022/11/11 01:27:11;;;;;;;16.10;5.85;;;9.60;99.90;;;;;;5049445;28;20117;-71
2022/11/11 01:29:37;;;;;;;13.15;6.50;;;9.60;99.90;;;;;;5048612;28;20078;-72
2022/11/11 01:32:02;;;;;;;16.20;5.88;;;9.50;99.90;;;;;;5016088;28;20058;-72
2022/11/11 01:34:28;;;;;;;12.93;5.70;;;9.50;99.90;;;;;;5043608;28;20479;-75
2022/11/11 01:36:54;;;;;;;13.27;5.68;;;9.40;99.90;;;;;;5046642;28;20049;-72
2022/11/11 01:39:19;;;;;;;13.85;6.35;;;9.40;99.90;;;;;;5080348;28;20053;-73
2022/11/11 01:41:45;;;;;;;13.32;5.95;;;9.30;99.90;;;;;;5027082;28;20053;-73
2022/11/11 01:44:11;;;;;;;16.20;6.47;;;9.40;99.90;;;;;;5062303;28;20053;-73
2022/11/11 01:46:38;;;;;;;15.85;6.85;;;9.30;99.90;;;;;;5044453;28;20089;-76
2022/11/11 01:49:29;;;;;;;16.15;6.68;;;9.20;99.90;;;;;;5028050;28;20136;-75
2022/11/11 01:52:10;;;;;;;18.08;6.65;;;9.20;99.90;;;;;;5027663;28;20463;-72
2022/11/11 01:54:45;;;;;;;18.05;6.13;;;9.10;99.90;;;;;;5029449;28;20106;-76
2022/11/11 01:57:22;;;;;;;13.35;6.13;;;9.10;99.90;;;;;;5045561;28;20402;-75
2022/11/11 01:59:59;;;;;;;17.92;6.75;;;9.10;99.90;;;;;;5061577;28;20062;-73
2022/11/11 02:02:52;;;;;;;16.33;5.57;;;9.00;99.90;;;;;;5039364;28;20129;-72
2022/11/11 02:08:10;;;;;;;21.92;7.47;;;9.10;99.90;;;;;;5049094;28;20479;-72
2022/11/11 02:10:38;;;;;;;18.02;7.20;;;9.00;99.90;;;;;;5037021;28;20053;-76
2022/11/11 02:15:55;;;;;;;18.77;6.57;;;9.00;99.90;;;;;;5031616;28;20607;-72
2022/11/11 02:18:21;;;;;;;14.10;7.90;;;9.00;99.90;;;;;;5029102;28;20052;-72
2022/11/11 02:20:47;;;;;;;18.23;7.50;;;9.00;99.90;;;;;;5027470;28;20096;-73
2022/11/11 02:23:25;;;;;;;19.15;7.85;;;9.00;99.90;;;;;;5047435;28;20045;-73
2022/11/11 02:25:54;;;;;;;16.67;7.80;;;9.00;99.90;;;;;;5048139;28;20037;-73
2022/11/11 02:28:24;;;;;;;18.00;8.23;;;9.00;99.90;;;;;;5030720;28;20045;-73
2022/11/11 02:30:50;;;;;;;22.48;8.02;;;8.90;99.90;;;;;;5047564;28;20139;-72
2022/11/11 02:33:15;;;;;;;21.10;8.82;;;9.00;99.90;;;;;;5049921;28;20492;-72
2022/11/11 02:35:56;;;;;;;21.30;8.02;;;9.00;99.90;;;;;;5046967;28;20375;-76
2022/11/11 02:38:24;;;;;;;23.42;9.63;;;9.00;99.90;;;;;;5038558;28;20085;-73
2022/11/11 02:43:34;;;;;;;23.40;9.52;;;9.20;99.90;;;;;;5032603;28;20103;-72
2022/11/11 02:46:02;;;;;;;20.25;8.88;;;9.10;99.90;;;;;;5032002;28;20108;-73
2022/11/11 02:48:28;;;;;;;24.55;9.10;;;9.10;99.90;;;;;;5033722;28;20132;-74
2022/11/11 02:50:54;;;;;;;22.63;8.55;;;9.10;99.90;;;;;;5063851;28;20053;-72
2022/11/11 02:53:21;;;;;;;25.13;8.90;;;9.00;99.90;;;;;;5052344;28;20095;-72
2022/11/11 02:55:46;;;;;;;20.95;9.55;;;9.00;99.90;;;;;;5035179;28;20114;-73
2022/11/11 02:58:13;;;;;;;22.55;9.38;;;9.00;99.90;;;;;;5033183;28;20462;-72
2022/11/11 03:00:39;;;;;;;21.60;9.55;;;9.10;99.90;;;;;;5051562;28;20045;-74
2022/11/11 03:03:05;;;;;;;25.25;9.13;;;9.00;99.90;;;;;;5036600;28;20102;-72
2022/11/11 03:05:30;;;;;;;20.55;8.65;;;9.10;99.90;;;;;;5063182;28;20542;-72
2022/11/11 03:07:56;;;;;;;23.73;9.48;;;9.10;99.90;;;;;;5052744;28;20124;-72
2022/11/11 03:10:21;;;;;;;27.50;10.00;;;9.30;99.90;;;;;;5051762;28;20049;-73
2022/11/11 03:12:47;;;;;;;28.88;10.27;;;9.20;99.90;;;;;;5051363;28;20509;-71
2022/11/11 03:15:13;;;;;;;29.42;11.43;;;9.30;99.90;;;;;;5068097;28;20053;-74
2022/11/11 03:17:39;;;;;;;27.42;10.07;;;9.30;99.90;;;;;;5053061;28;20041;-72
2022/11/11 03:23:06;;;;;;;24.10;9.90;;;9.40;99.90;;;;;;5045662;28;20081;-74
2022/11/11 03:25:39;;;;;;;27.52;11.48;;;9.50;99.90;;;;;;5051664;28;20394;-72
2022/11/11 03:28:09;;;;;;;24.88;10.27;;;9.50;99.90;;;;;;5050182;28;20052;-72
2022/11/11 03:30:36;;;;;;;22.67;9.48;;;9.60;99.90;;;;;;5051972;28;20049;-73
2022/11/11 03:33:02;;;;;;;23.92;9.65;;;9.60;99.90;;;;;;5050511;28;20123;-72
2022/11/11 03:35:28;;;;;;;;;;;9.60;99.90;;;;;;5050326;28;20058;-72
2022/11/11 03:40:38;;;;;;;25.55;11.30;;;9.60;99.90;;;;;;5064987;28;20488;-72
2022/11/11 03:43:04;;;;;;;21.48;10.07;;;9.70;99.90;;;;;;5030660;28;20053;-72
2022/11/11 03:45:29;;;;;;;;;;;9.70;99.90;;;;;;5045130;28;20045;-72
2022/11/11 03:47:55;;;;;;;27.58;10.30;;;9.70;99.90;;;;;;5050472;28;19927;-74
2022/11/11 03:50:21;;;;;;;26.80;12.15;;;9.80;99.90;;;;;;5047953;28;20132;-74
2022/11/11 03:52:47;;;;;;;;;;;9.80;99.90;;;;;;5067994;28;20053;-76
2022/11/11 03:55:13;;;;;;;28.95;11.18;;;9.80;99.90;;;;;;5051289;28;19931;-74
2022/11/11 03:57:44;;;;;;;22.23;11.00;;;9.80;99.90;;;;;;5068245;28;20550;-72
2022/11/11 04:00:13;;;;;;;27.35;10.88;;;9.90;99.90;;;;;;5083932;28;20107;-73
2022/11/11 04:11:04;;;;;;;30.60;11.07;;;10.00;99.90;;;;;;5050652;28;20053;-73
2022/11/11 04:16:15;;;;;;;26.55;11.20;;;9.70;99.90;;;;;;5049442;28;20208;-74
2022/11/11 04:21:44;;;;;;;25.45;11.20;;;10.10;99.90;;;;;;5049407;28;20414;-74
2022/11/11 04:27:02;;;;;;;25.02;11.02;;;10.10;99.90;;;;;;5050992;28;20045;-72
2022/11/11 04:29:29;;;;;;;24.83;10.82;;;10.10;99.90;;;;;;5050600;28;20048;-74
2022/11/11 04:34:51;;;;;;;28.95;11.43;;;10.10;99.90;;;;;;5035203;28;20057;-75
2022/11/11 04:37:18;;;;;;;24.52;10.70;;;10.20;99.90;;;;;;5062524;28;20057;-74
2022/11/11 04:42:30;;;;;;;29.50;11.30;;;10.20;99.90;;;;;;5050512;28;20063;-75
2022/11/11 04:48:07;;;;;;;26.55;10.95;;;10.30;99.90;;;;;;5049710;28;20509;-73
2022/11/11 04:50:36;;;;;;;21.73;9.70;;;10.20;99.90;;;;;;5042750;28;20141;-72
2022/11/11 04:53:03;;;;;;;22.58;9.90;;;10.30;99.90;;;;;;5050084;28;20052;-72
2022/11/11 04:58:15;;;;;;;25.42;10.05;;;10.20;99.90;;;;;;5049495;28;20064;-72
2022/11/11 05:00:43;;;;;;;24.35;10.75;;;10.30;99.90;;;;;;5065293;28;20409;-72
2022/11/11 05:03:17;;;;;;;23.85;10.85;;;10.30;99.90;;;;;;5032822;28;20040;-73
2022/11/11 05:08:56;;;;;;;23.92;9.55;;;10.30;99.90;;;;;;5039412;28;20069;-72
2022/11/11 05:11:33;;;;;;;26.60;11.32;;;10.30;99.90;;;;;;5044126;28;20053;-71
2022/11/11 05:22:40;;;;;;;30.67;11.02;;;10.30;99.90;;;;;;5049653;28;20049;-72
2022/11/11 05:25:25;;;;;;;22.95;10.50;;;10.30;99.90;;;;;;5046174;28;20091;-73
2022/11/11 05:27:56;;;;;;;23.88;9.95;;;10.30;99.90;;;;;;5082738;28;20080;-74
2022/11/11 05:30:22;;;;;;;24.60;10.05;;;10.20;99.90;;;;;;5047356;28;20099;-72
2022/11/11 05:32:48;;;;;;;21.98;9.98;;;10.20;99.90;;;;;;5032942;28;20055;-72
2022/11/11 05:35:14;;;;;;;23.10;10.70;;;10.20;99.90;;;;;;5048047;28;20124;-74
2022/11/11 05:37:41;;;;;;;31.00;10.82;;;10.20;99.90;;;;;;5081600;28;20124;-72
2022/11/11 05:40:08;;;;;;;28.10;10.43;;;10.20;99.90;;;;;;5045568;28;20088;-71
2022/11/11 05:42:41;;;;;;;22.05;9.25;;;10.20;99.90;;;;;;5032706;28;20136;-72
2022/11/11 05:45:08;;;;;;;22.70;9.52;;;10.20;99.90;;;;;;5047250;28;20672;-73
2022/11/11 05:47:33;;;;;;;24.60;10.23;;;10.20;99.90;;;;;;5032097;28;20068;-72
2022/11/11 05:49:59;;;;;;;24.42;10.32;;;10.30;99.90;;;;;;5030938;28;20561;-76
2022/11/11 05:52:25;;;;;;;25.27;9.63;;;10.30;99.90;;;;;;5031714;28;20132;-72
2022/11/11 05:54:52;;;;;;;28.25;9.85;;;10.30;99.90;;;;;;5020676;28;20569;-72
2022/11/11 05:57:18;;;;;;;25.52;9.15;;;10.30;99.90;;;;;;5024762;28;20045;-72
2022/11/11 05:59:44;;;;;;;24.02;9.55;;;10.30;99.90;;;;;;5029193;28;20068;-72
2022/11/11 06:02:10;;;;;;;25.95;10.60;;;10.30;99.90;;;;;;5039738;28;20569;-72
2022/11/11 06:04:36;;;;;;;24.25;10.48;;;10.30;99.90;;;;;;5062975;28;20045;-73
2022/11/11 06:07:01;;;;;;;26.85;10.10;;;10.30;99.90;;;;;;5026958;28;20052;-75
2022/11/11 06:09:27;;;;;;;25.00;10.55;;;10.30;99.90;;;;;;5037600;28;20558;-72
2022/11/11 06:11:54;;;;;;;23.08;9.60;;;10.30;99.90;;;;;;5082419;28;20048;-72
2022/11/11 06:14:20;;;;;;;26.52;9.98;;;10.30;99.90;;;;;;5052088;28;20045;-73
2022/11/11 06:16:45;;;;;;;20.73;8.98;;;10.30;99.90;;;;;;5040390;28;20080;-73
2022/11/11 06:19:11;;;;;;;25.70;9.77;;;10.30;99.90;;;;;;5031000;28;20890;-74
2022/11/11 06:24:21;;;;;;;25.02;9.82;;;10.30;99.90;;;;;;5018477;28;20045;-72
2022/11/11 06:26:47;;;;;;;19.73;8.43;;;10.30;99.90;;;;;;5033016;28;20376;-74
2022/11/11 06:29:13;;;;;;;19.65;9.38;;;10.30;99.90;;;;;;5049156;28;20478;-72
2022/11/11 06:31:38;;;;;;;21.70;10.05;;;10.30;99.90;;;;;;5052573;28;20047;-72
2022/11/11 06:34:04;;;;;;;21.92;9.88;;;10.30;99.90;;;;;;5050521;28;20041;-76
2022/11/11 06:36:30;;;;;;;23.00;9.52;;;10.30;99.90;;;;;;5050989;28;20053;-74
2022/11/11 06:38:55;;;;;;;18.88;8.82;;;10.30;99.90;;;;;;5058974;28;20041;-72
2022/11/11 06:41:24;;;;;;;18.02;8.30;;;10.30;99.90;;;;;;5032819;28;20520;-72
2022/11/11 06:43:50;;;;;;;23.20;9.80;;;10.30;99.90;;;;;;4999947;28;20045;-72
2022/11/11 06:46:21;;;;;;;26.92;10.82;;;10.20;99.90;;;;;;5015093;28;20103;-72
2022/11/11 06:48:47;;;;;;;18.85;8.88;;;10.20;99.90;;;;;;5048869;28;20049;-72
2022/11/11 06:51:13;;;;;;;19.05;8.95;;;10.30;99.90;;;;;;5045544;28;20484;-71
2022/11/11 06:53:39;;;;;;;;;;;10.20;99.90;;;;;;5035686;28;20463;-73
2022/11/11 06:56:06;;;;;;;21.88;9.45;;;10.20;99.90;;;;;;5052694;28;19931;-76
2022/11/11 06:58:32;;;;;;;24.48;9.05;;;10.20;99.90;;;;;;5033441;28;20051;-72
2022/11/11 07:00:58;;;;;;;19.50;8.63;;;10.20;99.90;;;;;;5052569;28;20053;-72
2022/11/11 07:03:24;;;;;;;21.60;8.45;;;10.20;99.90;;;;;;5051148;28;20051;-72
2022/11/11 07:05:50;;;;;;;19.13;9.32;;;10.20;99.90;;;;;;5049936;28;20563;-72
2022/11/11 07:08:17;;;;;;;21.98;10.00;;;10.20;99.90;;;;;;5037750;28;20053;-71
2022/11/11 07:10:46;;;;;;;19.50;9.38;;;10.20;99.90;;;;;;4998906;28;20057;-72
2022/11/11 07:13:12;;;;;;;21.10;9.68;;;10.20;99.90;;;;;;5031060;28;20046;-74
2022/11/11 07:15:40;;;;;;;20.83;8.75;;;10.20;99.90;;;;;;5032700;28;20491;-72
2022/11/11 07:18:05;;;;;;;19.67;8.95;;;10.20;99.90;;;;;;5050812;28;20138;-75
2022/11/11 07:20:31;;;;;;;18.55;9.00;;;10.20;99.90;;;;;;5044558;28;20077;-71
2022/11/11 07:22:57;;;;;;;21.20;9.35;;;10.20;99.90;;;;;;5046339;28;20046;-72
2022/11/11 07:25:23;;;;;;;21.73;8.63;;;10.20;99.90;;;;;;5078516;28;20048;-73
2022/11/11 07:27:49;;;;;;;21.17;9.07;;;10.20;99.90;;;;;;5052913;28;20049;-72
2022/11/11 07:30:15;;;;;;;27.17;10.13;;;10.20;99.90;;;;;;5048546;28;20099;-72
2022/11/11 07:32:45;;;;;;;25.73;9.98;;;10.20;99.90;;;;;;5051641;28;20491;-72
2022/11/11 07:35:13;;;;;;;19.98;9.10;;;10.30;99.90;;;;;;5050726;28;20048;-76
2022/11/11 07:37:39;;;;;;;18.83;8.45;;;10.20;99.90;;;;;;5050488;28;20082;-70
2022/11/11 07:40:05;;;;;;;24.67;8.43;;;10.30;99.90;;;;;;5044674;28;20045;-72
2022/11/11 07:42:31;;;;;;;22.60;8.98;;;10.20;99.90;;;;;;5048555;28;20432;-73
2022/11/11 07:44:57;;;;;;;21.63;10.07;;;10.20;99.90;;;;;;5051531;28;20502;-72
2022/11/11 07:47:22;;;;;;;22.35;9.20;;;10.20;99.90;;;;;;5083821;28;20079;-72
2022/11/11 07:49:48;;;;;;;20.27;8.77;;;10.30;99.90;;;;;;5028360;28;20049;-75
2022/11/11 07:52:14;;;;;;;28.38;8.85;;;10.20;99.90;;;;;;5038246;28;20045;-72
2022/11/11 07:54:39;;;;;;;22.05;9.18;;;10.30;99.90;;;;;;5038434;28;20120;-77
2022/11/11 07:57:05;;;;;;;24.50;9.95;;;10.20;99.90;;;;;;5029761;28;20041;-77
2022/11/11 07:59:37;;;;;;;18.77;8.68;;;10.30;99.90;;;;;;5032535;28;20681;-74
2022/11/11 08:02:09;;;;;;;19.30;7.88;;;10.20;99.90;;;;;;5059613;28;20043;-75
2022/11/11 08:04:35;;;;;;;24.38;9.15;;;10.20;99.90;;;;;;5062519;28;20099;-76
2022/11/11 08:07:01;;;;;;;23.60;9.55;;;10.20;99.90;;;;;;5044477;28;20073;-72
2022/11/11 08:09:27;;;;;;;19.65;7.95;;;10.20;99.90;;;;;;5064166;28;20083;-78
2022/11/11 08:14:45;;;;;;;20.48;9.13;;;10.20;99.90;;;;;;5048189;28;20052;-72
2022/11/11 08:17:10;;;;;;;23.92;9.75;;;10.20;99.90;;;;;;5046624;28;20049;-76
2022/11/11 08:19:36;;;;;;;26.80;9.10;;;10.20;99.90;;;;;;5028529;28;20057;-74
2022/11/11 08:22:03;;;;;;;18.70;8.50;;;10.30;99.90;;;;;;5039026;28;20052;-74
2022/11/11 08:24:29;;;;;;;27.23;9.82;;;10.20;99.90;;;;;;5059890;28;20045;-73
2022/11/11 08:26:55;;;;;;;21.25;8.80;;;10.30;99.90;;;;;;5047200;28;20103;-75
2022/11/11 08:29:21;;;;;;;19.98;9.55;;;10.20;99.90;;;;;;5044129;28;20061;-73
2022/11/11 08:31:47;;;;;;;;;;;10.20;99.90;;;;;;5041787;28;20155;-77
2022/11/11 08:34:12;;;;;;;22.00;9.57;;;10.20;99.90;;;;;;5047257;28;20047;-79
2022/11/11 08:36:39;;;;;;;18.30;8.75;;;10.30;99.90;;;;;;5047060;28;20083;-72
2022/11/11 08:39:04;;;;;;;19.95;8.70;;;10.30;99.90;;;;;;5027192;28;20045;-74
2022/11/11 08:41:30;;;;;;;21.77;9.48;;;10.30;99.90;;;;;;5043710;28;20037;-73
2022/11/11 08:43:56;;;;;;;26.70;9.65;;;10.30;99.90;;;;;;5044617;28;20475;-77
2022/11/11 08:46:23;;;;;;;23.60;8.90;;;10.30;99.90;;;;;;5043620;28;20064;-76
2022/11/11 08:48:48;;;;;;;18.50;8.95;;;10.30;99.90;;;;;;5049861;28;20550;-81
2022/11/11 08:51:15;;;;;;;20.70;8.30;;;10.40;99.90;;;;;;5048933;28;20127;-81
2022/11/11 08:53:40;;;;;;;;;;;10.40;99.90;;;;;;5048236;28;20045;-80
2022/11/11 08:56:07;;;;;;;20.15;8.60;;;10.30;99.90;;;;;;5050136;28;19946;-76
2022/11/11 08:58:33;;;;;;;21.40;9.43;;;10.40;99.90;;;;;;5080075;28;20107;-76
2022/11/11 09:01:00;;;;;;;20.98;9.02;;;10.40;99.90;;;;;;5048884;28;20044;-77
2022/11/11 09:03:26;;;;;;;19.33;9.27;;;10.40;99.90;;;;;;5040533;28;20056;-75
2022/11/11 09:05:52;;;;;;;;;;;10.50;99.90;;;;;;5065158;28;20046;-79
2022/11/11 09:08:18;;;;;;;23.52;9.60;;;10.40;99.90;;;;;;5040973;28;19927;-80
2022/11/11 09:10:43;;;;;;;19.65;9.15;;;10.50;99.90;;;;;;5052210;28;20110;-77
2022/11/11 09:13:09;;;;;;;23.73;9.77;;;10.40;99.90;;;;;;5045190;28;20032;-76
2022/11/11 09:15:35;;;;;;;27.45;11.40;;;10.40;99.90;;;;;;5048785;28;20505;-77
2022/11/11 09:18:00;;;;;;;26.45;11.30;;;10.40;99.90;;;;;;5083246;28;20045;-76
2022/11/11 09:20:26;;;;;;;23.40;10.45;;;10.40;99.90;;;;;;5046028;28;20098;-79
2022/11/11 09:22:52;;;;;;;27.95;10.32;;;10.40;99.90;;;;;;5082753;28;20099;-74
2022/11/11 09:25:18;;;;;;;22.70;10.57;;;10.40;99.90;;;;;;5046340;28;20045;-77
2022/11/11 09:27:56;;;;;;;27.50;11.18;;;10.40;99.90;;;;;;5048045;28;20041;-74
2022/11/11 09:30:22;;;;;;;26.90;10.10;;;10.40;99.90;;;;;;5043909;28;20080;-81
2022/11/11 09:32:47;;;;;;;;;;;10.40;99.90;;;;;;5065136;28;20048;-73
2022/11/11 09:35:13;;;;;;;24.73;10.32;;;10.40;99.90;;;;;;5045392;28;19924;-77
2022/11/11 09:37:39;;;;;;;25.50;10.48;;;10.50;99.90;;;;;;5044427;28;20053;-73
2022/11/11 09:40:05;;;;;;;26.55;9.40;;;10.50;99.90;;;;;;5049263;28;20040;-74
2022/11/11 09:42:41;;;;;;;26.95;9.27;;;10.50;99.90;;;;;;5048546;28;20067;-75
2022/11/11 09:45:25;;;;;;;24.88;9.95;;;10.50;99.90;;;;;;5040076;28;20091;-77
2022/11/11 09:47:59;;;;;;;22.58;8.63;;;10.50;99.90;;;;;;5064093;28;20056;-75
2022/11/11 09:50:27;;;;;;;21.05;9.02;;;10.40;99.90;;;;;;5038484;28;20057;-75
2022/11/11 09:53:06;;;;;;;20.00;8.40;;;10.40;99.90;;;;;;5030243;28;20041;-70
2022/11/11 09:55:57;;;;;;;18.80;8.25;;;10.40;99.90;;;;;;5030039;28;20049;-70
2022/11/11 09:58:39;;;;;;;19.13;8.45;;;10.40;99.90;;;;;;5049176;28;20049;-74
2022/11/11 10:01:11;;;;;;;21.77;8.57;;;10.40;99.90;;;;;;5042189;28;20498;-70
2022/11/11 10:03:50;;;;;;;21.13;8.25;;;10.40;99.90;;;;;;5048446;28;20049;-70
2022/11/11 10:06:30;;;;;;;17.40;7.20;;;10.40;99.90;;;;;;5039154;28;20172;-71
2022/11/11 10:09:17;;;;;;;19.70;8.57;;;10.50;99.90;;;;;;5049368;28;20049;-72
2022/11/11 10:11:47;;;;;;;22.00;9.52;;;10.50;99.90;;;;;;5044415;28;20041;-71
2022/11/11 10:14:13;;;;;;;20.13;8.02;;;10.40;99.90;;;;;;5029518;28;20045;-71
2022/11/11 10:17:11;;;;;;;20.20;8.38;;;10.30;99.90;;;;;;5031445;28;20219;-71
2022/11/11 10:19:57;;;;;;;18.15;8.52;;;10.30;99.90;;;;;;5028999;28;20905;-72
2022/11/11 10:22:44;;;;;;;17.97;7.47;;;10.30;99.90;;;;;;5035464;28;20132;-82
2022/11/11 10:25:18;;;;;;;20.77;7.63;;;10.30;99.90;;;;;;5035261;28;20064;-72
2022/11/11 10:27:45;;;;;;;17.02;7.95;;;10.40;99.90;;;;;;5043345;28;20041;-70
2022/11/11 10:30:40;;;;;;;17.77;7.45;;;10.40;99.90;;;;;;5032512;28;20045;-70
2022/11/11 10:33:17;;;;;;;17.75;7.72;;;10.40;99.90;;;;;;5053467;28;20438;-69
2022/11/11 10:35:44;;;;;;;;;;;10.40;99.90;;;;;;5027356;28;20077;-69
2022/11/11 10:38:09;;;;;;;16.75;7.38;;;10.50;99.90;;;;;;5029941;28;19931;-69
2022/11/11 10:40:57;;;;;;;16.83;6.88;;;10.60;99.90;;;;;;5033343;28;20441;-69
2022/11/11 10:43:27;;;;;;;16.52;6.80;;;10.90;99.90;;;;;;5029574;28;20052;-74
2022/11/11 10:46:24;;;;;;;13.27;6.38;;;11.30;99.90;;;;;;5016758;28;20124;-69
2022/11/11 10:48:59;;;;;;;12.98;5.70;;;11.80;99.90;;;;;;5029245;28;20114;-74
2022/11/11 10:51:30;;;;;;;14.17;6.67;;;12.40;99.90;;;;;;5027178;28;20085;-74
2022/11/11 10:54:15;;;;;;;13.70;6.93;;;12.80;99.90;;;;;;5037682;28;20068;-70
2022/11/11 10:57:02;;;;;;;12.63;6.45;;;13.40;99.90;;;;;;5029130;28;20061;-70
2022/11/11 10:59:59;;;;;;;13.35;5.85;;;13.90;99.90;;;;;;5033860;28;20159;-75
2022/11/11 11:02:27;;;;;;;14.95;5.82;;;14.20;99.90;;;;;;5035503;28;20053;-74
2022/11/11 11:04:53;;;;;;;13.52;6.00;;;14.50;99.90;;;;;;5031841;28;20049;-72
2022/11/11 11:07:25;;;;;;;14.30;6.03;;;14.70;99.90;;;;;;5031320;28;20103;-69
2022/11/11 11:10:04;;;;;;;12.82;6.20;;;14.80;99.90;;;;;;5050898;28;20071;-70
2022/11/11 11:12:46;;;;;;;9.88;5.63;;;15.00;99.90;;;;;;5049386;28;20092;-73
2022/11/11 11:15:16;;;;;;;12.68;6.20;;;15.20;99.90;;;;;;5033869;28;20107;-69
2022/11/11 11:18:07;;;;;;;11.45;5.88;;;15.30;99.90;;;;;;5048341;28;20044;-70
2022/11/11 11:20:33;;;;;;;10.27;4.90;;;15.40;99.90;;;;;;5041809;28;20056;-71
2022/11/11 11:23:00;;;;;;;11.82;5.63;;;15.40;99.90;;;;;;5047939;28;20044;-71
2022/11/11 11:25:28;;;;;;;11.38;5.18;;;15.60;99.90;;;;;;5031224;28;20049;-74
2022/11/11 11:28:10;;;;;;;12.98;5.47;;;15.90;99.90;;;;;;5040749;28;20053;-70
2022/11/11 11:30:36;;;;;;;11.85;5.47;;;16.30;99.90;;;;;;5031430;28;20045;-71
2022/11/11 11:33:06;;;;;;;;;;;16.40;99.90;;;;;;5032041;28;20051;-70
2022/11/11 11:35:38;;;;;;;10.80;5.15;;;16.50;99.90;;;;;;5029933;28;20294;-75
2022/11/11 11:38:08;;;;;;;10.77;5.57;;;16.70;99.90;;;;;;5031670;28;20104;-70
2022/11/11 11:40:57;;;;;;;9.27;4.97;;;16.90;99.90;;;;;;5031564;28;20056;-70
2022/11/11 11:43:37;;;;;;;10.38;5.20;;;16.90;99.90;;;;;;5031272;28;20052;-70
2022/11/11 11:46:36;;;;;;;10.93;4.78;;;16.90;99.90;;;;;;5031797;28;20446;-70
2022/11/11 11:49:01;;;;;;;8.55;4.97;;;16.80;99.90;;;;;;5031730;28;20077;-69
2022/11/11 11:51:31;;;;;;;;;;;16.70;99.90;;;;;;5033824;28;20484;-74
2022/11/11 11:54:25;;;;;;;21.30;5.40;;;16.80;99.90;;;;;;5049594;28;19921;-71
2022/11/11 11:56:55;;;;;;;10.57;4.88;;;17.00;99.90;;;;;;5037733;28;20045;-70
2022/11/11 11:59:38;;;;;;;10.30;4.82;;;17.30;99.90;;;;;;5032017;28;20103;-69
2022/11/11 12:02:16;;;;;;;10.00;4.85;;;17.20;99.90;;;;;;5032234;28;20102;-70
2022/11/11 12:05:06;;;;;;;11.88;5.28;;;17.00;99.90;;;;;;5030519;28;20104;-70
2022/11/11 12:07:46;;;;;;;9.98;4.45;;;17.00;99.90;;;;;;5031529;28;20045;-75
2022/11/11 12:10:15;;;;;;;9.00;4.70;;;16.80;99.90;;;;;;5045700;28;20127;-69
2022/11/11 12:13:03;;;;;;;8.95;4.25;;;16.70;99.90;;;;;;5051109;28;20041;-73
2022/11/11 12:15:54;;;;;;;14.35;4.75;;;16.80;99.90;;;;;;5040251;28;20045;-76
2022/11/11 12:19:03;;;;;;;9.02;4.45;;;17.00;99.90;;;;;;5043021;28;20045;-74
2022/11/11 12:22:14;;;;;;;8.80;4.55;;;17.10;99.90;;;;;;5013850;28;20056;-72
2022/11/11 12:25:11;;;;;;;11.15;4.75;;;17.40;99.90;;;;;;5030414;28;20410;-69
2022/11/11 12:27:54;;;;;;;11.13;4.15;;;17.80;99.90;;;;;;5005846;28;20088;-74
2022/11/11 12:30:27;;;;;;;11.07;5.05;;;17.80;99.90;;;;;;5042281;28;20114;-71
2022/11/11 12:33:32;;;;;;;8.00;4.13;;;17.90;99.90;;;;;;5036686;28;20045;-70
2022/11/11 12:36:18;;;;;;;8.52;3.85;;;18.00;99.90;;;;;;5077679;28;20059;-71
2022/11/11 12:39:22;;;;;;;8.32;4.45;;;18.20;99.90;;;;;;5042520;28;20072;-69
2022/11/11 12:41:58;;;;;;;13.10;4.53;;;18.40;99.90;;;;;;5043410;28;20464;-70
2022/11/11 12:44:35;;;;;;;7.85;4.30;;;18.30;99.90;;;;;;5047600;28;20494;-73
2022/11/11 12:47:24;;;;;;;8.50;3.83;;;18.20;99.90;;;;;;5038458;28;20061;-69
2022/11/11 12:50:03;;;;;;;11.52;4.13;;;18.20;99.90;;;;;;5043198;28;20474;-70
2022/11/11 12:52:40;;;;;;;8.88;3.63;;;18.50;99.90;;;;;;5044129;28;20127;-71
2022/11/11 12:55:11;;;;;;;10.10;3.70;;;18.70;99.90;;;;;;5074661;28;20077;-70
2022/11/11 12:58:02;;;;;;;11.43;4.15;;;19.20;99.90;;;;;;5054060;28;20059;-75
2022/11/11 13:00:29;;;;;;;6.90;3.80;;;19.80;99.90;;;;;;5042349;28;20053;-70
2022/11/11 13:03:23;;;;;;;6.18;3.08;;;20.20;99.90;;;;;;5043871;28;20052;-71
2022/11/11 13:06:01;;;;;;;7.13;3.10;;;20.40;99.90;;;;;;5027987;28;20053;-71
2022/11/11 13:09:03;;;;;;;7.93;3.28;;;20.50;99.90;;;;;;5038144;28;20059;-72
2022/11/11 13:11:38;;;;;;;8.68;3.42;;;20.40;97.90;;;;;;5030395;28;20054;-70
2022/11/11 13:14:29;;;;;;;8.40;3.42;;;20.50;99.90;;;;;;5030114;28;20053;-71
2022/11/11 13:16:58;;;;;;;9.30;3.30;;;20.40;99.90;;;;;;5034104;28;20040;-71
2022/11/11 13:20:02;;;;;;;8.60;3.47;;;20.20;99.90;;;;;;5033006;28;20056;-79
2022/11/11 13:22:30;;;;;;;8.23;3.50;;;20.50;94.70;;;;;;5029511;28;20155;-71
2022/11/11 13:24:57;;;;;;;8.27;3.55;;;20.50;99.90;;;;;;5031572;28;20120;-74
2022/11/11 13:27:28;;;;;;;9.68;3.50;;;20.40;99.90;;;;;;5049025;28;20115;-72
2022/11/11 13:30:06;;;;;;;7.45;3.65;;;20.30;99.90;;;;;;5029561;28;20050;-73
2022/11/11 13:32:46;;;;;;;10.25;3.90;;;20.50;99.50;;;;;;5034205;28;20052;-74
2022/11/11 13:35:36;;;;;;;8.27;3.58;;;20.80;98.50;;;;;;5029131;28;20049;-74
2022/11/11 13:38:03;;;;;;;6.65;3.13;;;20.90;95.30;;;;;;5029532;28;20041;-74
2022/11/11 13:40:39;;;;;;;8.32;3.47;;;20.60;98.70;;;;;;5030293;28;20049;-75
2022/11/11 13:43:15;;;;;;;7.80;3.55;;;20.40;98.70;;;;;;5038849;28;20062;-72
2022/11/11 13:45:42;;;;;;;6.93;3.25;;;20.10;99.80;;;;;;5045359;28;20079;-76
2022/11/11 13:48:36;;;;;;;8.75;3.20;;;19.90;99.90;;;;;;5028633;28;20103;-71
2022/11/11 13:51:33;;;;;;;9.13;3.47;;;19.80;97.30;;;;;;5032934;28;20119;-74
2022/11/11 13:54:01;;;;;;;7.38;3.33;;;19.60;97.80;;;;;;5035193;28;20441;-72
2022/11/11 13:56:31;;;;;;;7.55;3.50;;;19.40;99.90;;;;;;5030076;28;20099;-72
2022/11/11 13:58:58;;;;;;;7.32;3.28;;;19.20;99.90;;;;;;5028747;28;20452;-70
2022/11/11 14:01:31;;;;;;;8.70;3.58;;;19.10;99.90;;;;;;5042447;28;20487;-71
2022/11/11 14:03:59;;;;;;;7.80;3.10;;;19.30;99.90;;;;;;5066903;28;20135;-72
2022/11/11 14:06:35;;;;;;;9.15;3.70;;;19.50;99.90;;;;;;5040930;28;20063;-70
2022/11/11 14:09:02;;;;;;;8.00;3.15;;;19.80;99.90;;;;;;5045949;28;20878;-73
2022/11/11 14:11:35;;;;;;;5.90;3.10;;;20.10;99.90;;;;;;5042157;28;20037;-72
2022/11/11 14:14:35;;;;;;;8.77;3.10;;;20.40;98.50;;;;;;5046301;28;20064;-73
2022/11/11 14:17:12;;;;;;;7.00;2.80;;;20.70;96.30;;;;;;5034687;28;20575;-75
2022/11/11 14:19:38;;;;;;;7.13;3.40;;;21.00;96.40;;;;;;5046294;28;20501;-71
2022/11/11 14:22:32;;;;;;;8.75;3.63;;;21.20;95.90;;;;;;5043229;28;20053;-73